Flight Track Log - Related Links

Times and Time Zones

All times are in EDT time to prevent confusion due to time zone crossing. See the AWI3778 flight status page for this flight to view local times or setup timezone preferences in your user account.

Time Position Orientation Groundspeed Altitude Reporting Facility
EDT Latitude Longitude Course Direction KTS MPH feet Rate Location/Type
Fri 02:06:25 PM 44.3864 -73.1111 192° South 217 250 4,300  Level Boston Center
Fri 02:07:25 PM 44.3217 -73.1306 192° South 238 274 6,500 2,300 Climbing Boston Center
Fri 02:08:25 PM 44.2550 -73.1619 199° South 250 288 8,900 2,150 Climbing Boston Center
Fri 02:09:25 PM 44.1961 -73.2161 213° Southwest 255 293 10,800 1,850 Climbing Boston Center
Fri 02:10:25 PM 44.1311 -73.2731 212° Southwest 269 310 12,600 1,300 Climbing Boston Center
Fri 02:11:25 PM 44.0619 -73.3356 213° Southwest 287 330 13,400 1,250 Climbing Boston Center
Fri 02:12:25 PM 43.9844 -73.3808 203° Southwest 300 345 15,100 1,500 Climbing Boston Center
Fri 02:13:25 PM 43.8989 -73.4139 196° South 317 365 16,400 1,250 Climbing Boston Center
Fri 02:14:25 PM 43.8111 -73.4442 194° South 327 376 17,600 1,550 Climbing Boston Center
Fri 02:15:25 PM 43.7211 -73.4742 194° South 332 382 19,500 1,400 Climbing Boston Center
Fri 02:16:25 PM 43.6439 -73.5017 194° South 332 382 20,400 950 Climbing Boston Center
Fri 02:17:25 PM 43.5517 -73.5344 194° South 332 382 21,400 950 Climbing Boston Center
Fri 02:18:25 PM 43.4786 -73.5589 194° South 338 389 22,300 950 Climbing Boston Center
Fri 02:19:25 PM 43.3553 -73.5967 193° South 338 389 23,300 850 Climbing Boston Center
Fri 02:20:25 PM 43.2694 -73.6292 195° South 351 404 24,000 350 Climbing Boston Center
Fri 02:21:25 PM 43.1831 -73.7158 216° Southwest 351 404 24,000  Level Boston Center
Fri 02:22:25 PM 43.1133 -73.7997 221° Southwest 357 411 24,000  Level Boston Center
Fri 02:23:25 PM 43.0414 -73.8889 222° Southwest 363 418 24,000  Level Boston Center
Fri 02:24:37 PM 42.9714 -73.9781 223° Southwest 363 418 24,000  Level Boston Center
Fri 02:25:37 PM 42.8844 -74.0836 222° Southwest 350 403 24,000  Level Boston Center
Fri 02:26:37 PM 42.8122 -74.1750 223° Southwest 350 403 24,000  Level Boston Center
Fri 02:27:37 PM 42.7422 -74.2664 224° Southwest 355 409 24,000  Level Boston Center
Fri 02:28:37 PM 42.6697 -74.3575 223° Southwest 355 409 24,000  Level Boston Center
Fri 02:29:37 PM 42.5953 -74.4483 222° Southwest 355 409 24,000  Level Boston Center
Fri 02:30:37 PM 42.5228 -74.5389 223° Southwest 360 414 24,000  Level Boston Center
Fri 02:31:37 PM 42.4503 -74.6292 223° Southwest 360 414 24,000  Level Boston Center
Fri 02:32:37 PM 42.3775 -74.7139 221° Southwest 355 409 24,000 -567 Level Boston Center
Fri 02:34:37 PM 42.2350 -74.8908 223° Southwest 347 399 22,300 -1,067 Descending New York Center
Fri 02:35:37 PM 42.1506 -74.9806 218° Southwest 353 406 20,800 -1,488 Descending New York Center
Fri 02:36:38 PM 42.0669 -75.0508 212° Southwest 359 413 19,300 -908 Descending New York Center
Fri 02:37:36 PM 41.9961 -75.1103 212° Southwest 354 407 19,000 -151 Descending New York Center
Fri 02:38:37 PM 41.9103 -75.1800 211° Southwest 344 396 19,000 -545 Level New York Center
Fri 02:39:37 PM 41.8308 -75.2442 211° Southwest 339 390 17,900 -1,388 Descending New York Center
Fri 02:40:38 PM 41.7469 -75.3108 211° Southwest 347 399 16,200 -1,587 Descending New York Center
Fri 02:41:38 PM 41.6761 -75.3700 212° Southwest 345 397 14,700 -1,475 Descending New York Center
Fri 02:42:36 PM 41.5964 -75.4339 211° Southwest 345 397 13,300 -1,311 Descending New York Center
Fri 02:43:37 PM 41.5128 -75.5000 211° Southwest 339 390 12,100 -595 Descending New York Center
Fri 02:44:37 PM 41.4331 -75.5636 211° Southwest 334 384 12,100  Level New York Center
Fri 02:45:38 PM 41.3578 -75.6244 211° Southwest 329 379 12,100 -150 Level New York Center
Fri 02:46:37 PM 41.2761 -75.6822 208° Southwest 329 379 11,800 -908 Descending New York Center
Fri 02:47:37 PM 41.1947 -75.6872 183° South 322 371 10,300 -843 Descending New York Center
Fri 02:48:38 PM 41.1133 -75.6897 181° South 316 364 10,100 -99 Descending New York Center
Fri 02:49:38 PM 41.0239 -75.6886 179° South 295 339 10,100  Level New York Center
Fri 02:50:36 PM 40.9489 -75.6886 180° South 295 339 10,100  Level New York Center
Fri 02:51:38 PM 40.8572 -75.6875 179° South 295 339 10,100  Level New York Center
Fri 02:52:35 PM 40.7781 -75.6872 180° South 290 334 10,100  Level New York Center
Fri 02:53:36 PM 40.6967 -75.6869 180° South 290 334 10,100  Level New York Center
Fri 02:54:37 PM 40.6219 -75.6844 179° South 290 334 10,100  Level New York Center
Fri 02:55:38 PM 40.5553 -75.6331 150° Southeast 290 334 10,100 -605 Level New York Center
Fri 02:56:36 PM 40.5069 -75.5369 123° Southeast 296 341 8,900 -1,475 Descending New York Center
Fri 02:57:36 PM 40.4525 -75.4403 126° Southeast 304 350 7,200 -1,388 Descending New York Center
Fri 02:58:37 PM 40.3875 -75.4006 155° Southeast 286 329 6,100 -1,041 Descending New York Center
Fri 02:59:37 PM 40.3161 -75.3578 155° Southeast 280 322 5,100 -545 Descending New York Center
Fri 03:00:38 PM 40.2531 -75.3181 154° Southeast 247 284 5,000 -50 Descending New York Center
Fri 03:01:38 PM 40.1958 -75.2872 158° South 233 268 5,000  Level New York Center
Fri 03:02:38 PM 40.1431 -75.2539 154° Southeast 228 262 5,000 -346 Level New York Center
Fri 03:03:22 PM 40.1000 -75.2333 160° South 225 259 4,400 -577 Descending Philadelphia TRACON
Fri 03:04:22 PM 40.0500 -75.2000 153° Southeast 195 224 4,000 -200 Descending Philadelphia TRACON
Fri 03:05:22 PM 39.9833 -75.1667 159° South 210 242 4,000  Level Philadelphia TRACON
Fri 03:06:16 PM 39.9333 -75.1500 166° South 221 254 4,000 -50 Level Philadelphia TRACON
Fri 03:07:22 PM 39.8833 -75.1333 166° South 216 249 3,900 -571 Descending Philadelphia TRACON
Fri 03:08:22 PM 39.8167 -75.1000 159° South 205 236 2,800 -1,100 Descending Philadelphia TRACON

Login

Don't have an account? Register now (free) for customized features, flight alerts, and more!